Time;durP1;ratioP1;P1;durP2;ratioP2;P2;SDS_P1;SDS_P2;PMS_P1;PMS_P2;Temp;Humidity;BMP_temperature;BMP_pressure;BME280_temperature;BME280_humidity;BME280_pressure;Samples;Min_cycle;Max_cycle;Signal;HPM_P1;HPM_P2
2022/01/15 00:01:41;;;;;;;14.93;4.50;;;4.20;99.90;;;;;;5031736;28;20215;-74
2022/01/15 00:04:07;;;;;;;22.00;4.67;;;4.20;99.90;;;;;;5026196;28;20275;-74
2022/01/15 00:06:33;;;;;;;22.90;4.23;;;4.20;99.90;;;;;;5011984;28;20274;-74
2022/01/15 00:08:58;;;;;;;16.90;4.03;;;4.10;99.90;;;;;;5013334;28;20189;-74
2022/01/15 00:11:24;;;;;;;19.80;4.27;;;4.10;99.90;;;;;;5013268;28;20216;-74
2022/01/15 00:13:56;;;;;;;21.53;4.83;;;4.10;99.90;;;;;;5012858;28;20216;-74
2022/01/15 00:16:45;;;;;;;19.83;4.33;;;4.10;99.90;;;;;;5011979;28;20231;-74
2022/01/15 00:19:13;;;;;;;23.77;4.60;;;4.10;99.90;;;;;;5011719;28;20221;-74
2022/01/15 00:21:39;;;;;;;23.97;4.80;;;4.10;99.90;;;;;;5013180;28;20307;-74
2022/01/15 00:24:06;;;;;;;17.23;3.90;;;4.10;99.90;;;;;;5013364;28;20287;-74
2022/01/15 00:26:32;;;;;;;21.70;4.23;;;4.00;99.90;;;;;;5012968;28;20212;-74
2022/01/15 00:28:57;;;;;;;23.13;5.40;;;4.00;99.90;;;;;;5013492;28;20208;-74
2022/01/15 00:31:23;;;;;;;21.83;5.07;;;4.00;99.90;;;;;;5012523;28;20212;-75
2022/01/15 00:33:48;;;;;;;20.97;4.27;;;4.00;99.90;;;;;;5011483;28;20262;-74
2022/01/15 00:36:15;;;;;;;19.70;5.13;;;4.00;99.90;;;;;;5012413;28;20180;-75
2022/01/15 00:38:41;;;;;;;21.83;4.60;;;4.00;99.90;;;;;;5012029;28;20303;-75
2022/01/15 00:41:07;;;;;;;22.53;4.43;;;4.00;99.90;;;;;;5011261;28;20306;-75
2022/01/15 00:43:32;;;;;;;20.87;4.70;;;4.00;99.90;;;;;;5012022;28;20302;-75
2022/01/15 00:45:58;;;;;;;23.03;4.77;;;3.90;99.90;;;;;;5012262;28;20222;-75
2022/01/15 00:48:24;;;;;;;19.10;5.37;;;3.90;99.90;;;;;;5011930;28;20187;-75
2022/01/15 00:50:50;;;;;;;20.13;4.07;;;3.90;99.90;;;;;;5012196;28;20220;-75
2022/01/15 00:53:15;;;;;;;23.37;4.27;;;3.90;99.90;;;;;;5011639;28;20686;-75
2022/01/15 00:55:41;;;;;;;25.37;5.17;;;3.90;99.90;;;;;;5010430;28;20207;-75
2022/01/15 00:58:07;;;;;;;25.17;4.90;;;3.90;99.90;;;;;;5011469;28;20278;-75
2022/01/15 01:00:32;;;;;;;20.47;4.50;;;3.90;99.90;;;;;;5010601;28;20215;-75
2022/01/15 01:02:58;;;;;;;30.13;5.67;;;3.90;99.90;;;;;;5011939;28;20692;-75
2022/01/15 01:05:23;;;;;;;21.43;4.87;;;3.90;99.90;;;;;;5011856;28;20231;-75
2022/01/15 01:07:49;;;;;;;25.77;5.37;;;3.90;99.90;;;;;;5009983;28;20762;-75
2022/01/15 01:10:44;;;;;;;22.37;4.70;;;3.90;99.90;;;;;;5011734;28;20736;-75
2022/01/15 01:23:25;;;;;;;22.60;5.53;;;3.80;99.90;;;;;;5010759;28;20217;-75
2022/01/15 01:25:57;;;;;;;17.80;4.40;;;3.90;99.90;;;;;;5011566;28;20790;-75
2022/01/15 01:28:30;;;;;;;25.93;4.90;;;3.80;99.90;;;;;;5010523;28;20227;-72
2022/01/15 01:31:02;;;;;;;25.67;4.83;;;3.80;99.90;;;;;;5011152;28;20211;-76
2022/01/15 01:33:35;;;;;;;30.00;5.27;;;3.80;99.90;;;;;;5011085;28;20216;-75
2022/01/15 01:38:34;;;;;;;18.90;4.20;;;3.80;99.90;;;;;;5010661;28;20208;-75
2022/01/15 01:41:01;;;;;;;19.40;4.67;;;3.70;99.90;;;;;;5011376;28;20583;-75
2022/01/15 01:46:20;;;;;;;23.43;4.90;;;3.80;99.90;;;;;;5011376;28;20243;-76
2022/01/15 01:48:46;;;;;;;17.13;4.40;;;3.80;99.90;;;;;;5010512;28;20184;-74
2022/01/15 01:51:23;;;;;;;20.13;4.60;;;3.70;99.90;;;;;;5011643;28;20187;-76
2022/01/15 01:53:49;;;;;;;26.03;5.17;;;3.80;99.90;;;;;;5009223;28;20227;-74
2022/01/15 01:56:15;;;;;;;19.40;4.77;;;3.70;99.90;;;;;;5009669;28;20225;-74
2022/01/15 01:58:40;;;;;;;22.17;4.80;;;3.70;99.90;;;;;;5009006;28;20602;-74
2022/01/15 02:01:06;;;;;;;18.70;5.03;;;3.60;99.90;;;;;;5009652;28;20213;-73
2022/01/15 02:03:31;;;;;;;17.30;3.83;;;3.70;99.90;;;;;;5009222;28;20204;-74
2022/01/15 02:05:57;;;;;;;19.87;4.83;;;3.60;99.90;;;;;;5011426;28;20180;-74
2022/01/15 02:08:23;;;;;;;23.93;4.87;;;3.60;99.90;;;;;;5008889;28;20208;-73
2022/01/15 02:10:50;;;;;;;18.40;4.93;;;3.60;99.90;;;;;;5009691;28;20203;-74
2022/01/15 02:13:15;;;;;;;15.90;4.30;;;3.60;99.90;;;;;;5010494;28;20268;-73
2022/01/15 02:15:41;;;;;;;26.23;4.90;;;3.50;99.90;;;;;;5010711;28;20564;-73
2022/01/15 02:18:07;;;;;;;18.50;4.73;;;3.60;99.90;;;;;;5010711;28;20179;-74
2022/01/15 02:25:52;;;;;;;16.47;4.77;;;3.50;99.90;;;;;;5010809;28;20256;-74
2022/01/15 02:28:23;;;;;;;20.37;5.33;;;3.50;99.90;;;;;;5010123;28;20691;-74
2022/01/15 02:30:57;;;;;;;21.93;4.83;;;3.40;99.90;;;;;;5009333;28;20295;-74
2022/01/15 02:33:23;;;;;;;16.63;4.27;;;3.40;99.90;;;;;;5008887;28;20365;-74
2022/01/15 02:35:49;;;;;;;23.47;4.60;;;3.40;99.90;;;;;;5012252;28;20281;-74
2022/01/15 02:38:14;;;;;;;20.27;4.13;;;3.40;99.90;;;;;;5012540;28;20203;-74
2022/01/15 02:40:41;;;;;;;21.50;4.63;;;3.40;99.90;;;;;;5012976;28;20301;-75
2022/01/15 02:43:15;;;;;;;19.60;3.93;;;3.40;99.90;;;;;;5014100;28;20306;-74
2022/01/15 02:45:46;;;;;;;25.73;4.50;;;3.40;99.90;;;;;;5014249;28;20202;-75
2022/01/15 02:48:17;;;;;;;20.70;4.53;;;3.40;99.90;;;;;;5014258;28;20219;-75
2022/01/15 02:50:44;;;;;;;20.13;4.67;;;3.40;99.90;;;;;;5014295;28;20231;-75
2022/01/15 02:53:12;;;;;;;20.13;4.47;;;3.40;99.90;;;;;;5012675;28;20305;-74
2022/01/15 02:55:45;;;;;;;21.03;4.83;;;3.30;99.90;;;;;;5014754;28;20295;-75
2022/01/15 02:58:11;;;;;;;23.63;4.40;;;3.30;99.90;;;;;;5012506;28;20216;-76
2022/01/15 03:00:37;;;;;;;22.07;5.20;;;3.30;99.90;;;;;;5013189;28;20182;-74
2022/01/15 03:03:03;;;;;;;24.43;4.97;;;3.30;99.90;;;;;;5012913;28;20226;-75
2022/01/15 03:05:28;;;;;;;23.67;5.20;;;3.20;99.90;;;;;;5014169;28;20220;-75
2022/01/15 03:07:54;;;;;;;16.57;4.33;;;3.20;99.90;;;;;;5013789;28;20269;-75
2022/01/15 03:10:19;;;;;;;21.07;4.97;;;3.20;99.90;;;;;;5012915;28;20218;-75
2022/01/15 03:12:45;;;;;;;20.43;4.40;;;3.20;99.90;;;;;;5013719;28;20194;-73
2022/01/15 03:15:17;;;;;;;16.07;4.97;;;3.10;99.90;;;;;;5014483;28;20606;-75
2022/01/15 03:17:42;;;;;;;26.67;5.37;;;3.20;99.90;;;;;;5013380;28;20302;-72
2022/01/15 03:20:08;;;;;;;24.73;5.50;;;3.10;99.90;;;;;;5013823;28;20731;-74
2022/01/15 03:22:34;;;;;;;18.43;4.20;;;3.10;99.90;;;;;;5013463;28;20229;-75
2022/01/15 03:24:59;;;;;;;16.77;4.73;;;3.00;99.90;;;;;;5013660;28;20694;-74
2022/01/15 03:27:25;;;;;;;23.33;4.87;;;3.10;99.90;;;;;;5009089;28;20185;-74
2022/01/15 03:29:51;;;;;;;27.87;6.00;;;3.00;99.90;;;;;;5012439;28;20250;-74
2022/01/15 03:32:17;;;;;;;18.17;4.57;;;3.00;99.90;;;;;;5013140;28;20213;-75
2022/01/15 03:34:43;;;;;;;21.27;4.80;;;3.00;99.90;;;;;;5011880;28;20301;-74
2022/01/15 03:37:09;;;;;;;22.03;4.83;;;3.00;99.90;;;;;;5012203;28;20310;-74
2022/01/15 03:39:35;;;;;;;25.77;5.53;;;3.00;99.90;;;;;;5011864;28;20580;-75
2022/01/15 03:42:01;;;;;;;25.67;5.57;;;3.00;99.90;;;;;;5013814;28;20177;-74
2022/01/15 03:44:27;;;;;;;14.23;4.43;;;3.00;99.90;;;;;;5013030;28;20283;-75
2022/01/15 03:46:53;;;;;;;21.57;5.50;;;3.00;99.90;;;;;;5011637;28;20244;-76
2022/01/15 03:49:18;;;;;;;16.37;4.57;;;3.00;99.90;;;;;;5011566;28;20218;-74
2022/01/15 03:51:45;;;;;;;18.10;4.43;;;2.90;99.90;;;;;;5012902;28;20652;-74
2022/01/15 03:54:10;;;;;;;21.07;5.30;;;2.90;99.90;;;;;;5013057;28;20232;-73
2022/01/15 03:56:36;;;;;;;24.67;5.07;;;3.00;99.90;;;;;;5012667;28;20678;-75
2022/01/15 03:59:01;;;;;;;21.60;5.10;;;2.90;99.90;;;;;;5012199;28;20214;-75
2022/01/15 04:01:27;;;;;;;23.00;4.73;;;2.90;99.90;;;;;;5011355;28;20221;-74
2022/01/15 04:03:52;;;;;;;27.70;5.10;;;2.90;99.90;;;;;;5012433;28;20220;-75
2022/01/15 04:06:18;;;;;;;27.63;4.70;;;2.80;99.90;;;;;;5013255;28;20240;-75
2022/01/15 04:08:43;;;;;;;21.90;5.37;;;2.80;99.90;;;;;;5010692;28;20745;-74
2022/01/15 04:11:09;;;;;;;25.30;5.33;;;2.80;99.90;;;;;;5010871;28;20224;-75
2022/01/15 04:13:34;;;;;;;20.50;4.80;;;2.80;99.90;;;;;;5011944;28;20295;-75
2022/01/15 04:16:00;;;;;;;26.23;5.73;;;2.80;99.90;;;;;;5012633;28;20636;-74
2022/01/15 04:18:28;;;;;;;27.87;5.30;;;2.80;99.90;;;;;;5012339;28;20178;-74
2022/01/15 04:20:56;;;;;;;22.80;5.37;;;2.80;99.90;;;;;;5012610;28;20202;-74
2022/01/15 04:23:21;;;;;;;21.53;5.13;;;2.80;99.90;;;;;;5011859;28;20755;-73
2022/01/15 04:25:47;;;;;;;19.60;4.67;;;2.70;99.90;;;;;;5012390;28;20216;-76
2022/01/15 04:28:13;;;;;;;26.90;4.73;;;2.70;99.90;;;;;;5010248;28;20225;-75
2022/01/15 04:30:46;;;;;;;28.83;4.73;;;2.70;99.90;;;;;;5012057;28;20230;-74
2022/01/15 04:33:12;;;;;;;25.30;5.63;;;2.70;99.90;;;;;;5010866;28;20601;-74
2022/01/15 04:35:37;;;;;;;21.87;4.90;;;2.70;99.90;;;;;;5012108;28;20213;-74
2022/01/15 04:38:08;;;;;;;21.57;4.53;;;2.70;99.90;;;;;;5011581;28;20269;-75
2022/01/15 04:40:33;;;;;;;22.73;4.23;;;2.70;99.90;;;;;;5013067;28;20220;-75
2022/01/15 04:42:59;;;;;;;24.43;4.70;;;2.70;99.90;;;;;;5011815;28;20208;-75
2022/01/15 04:45:24;;;;;;;26.37;4.57;;;2.60;99.90;;;;;;5011032;28;20288;-76
2022/01/15 04:47:50;;;;;;;16.47;4.07;;;2.60;99.90;;;;;;5011619;28;20294;-74
2022/01/15 04:50:17;;;;;;;20.50;4.50;;;2.70;99.90;;;;;;5012037;28;20225;-75
2022/01/15 04:52:43;;;;;;;13.83;4.33;;;2.60;99.90;;;;;;5011534;28;20225;-75
2022/01/15 04:55:10;;;;;;;22.67;4.23;;;2.60;99.90;;;;;;5010416;28;20591;-74
2022/01/15 04:57:36;;;;;;;25.17;4.40;;;2.60;99.90;;;;;;5010826;28;20664;-75
2022/01/15 05:00:04;;;;;;;20.67;4.60;;;2.70;99.90;;;;;;5010735;28;20268;-76
2022/01/15 05:02:30;;;;;;;26.00;4.63;;;2.60;99.90;;;;;;5011474;28;20742;-75
2022/01/15 05:04:55;;;;;;;20.47;5.40;;;2.70;99.90;;;;;;5011511;28;20205;-74
2022/01/15 05:07:22;;;;;;;20.80;4.87;;;2.70;99.90;;;;;;5011381;28;20236;-74
2022/01/15 05:09:47;;;;;;;23.73;5.30;;;2.70;99.90;;;;;;5011536;28;20173;-75
2022/01/15 05:12:27;;;;;;;21.23;5.13;;;2.80;99.90;;;;;;5010643;28;20195;-75
2022/01/15 05:14:53;;;;;;;26.00;5.13;;;2.80;99.90;;;;;;5004496;28;20216;-74
2022/01/15 05:17:19;;;;;;;17.20;4.17;;;2.80;99.90;;;;;;5010193;28;20213;-76
2022/01/15 05:19:44;;;;;;;24.40;5.50;;;2.90;99.90;;;;;;5011096;28;20211;-75
2022/01/15 05:22:09;;;;;;;21.53;5.13;;;2.80;99.90;;;;;;5010153;28;20221;-75
2022/01/15 05:24:35;;;;;;;16.13;4.40;;;2.90;99.90;;;;;;5011146;28;20196;-74
2022/01/15 05:27:01;;;;;;;16.03;4.00;;;2.90;99.90;;;;;;5010521;28;20208;-74
2022/01/15 05:29:26;;;;;;;21.57;5.07;;;2.90;99.90;;;;;;5008888;28;20408;-74
2022/01/15 05:31:52;;;;;;;18.10;5.80;;;2.90;99.90;;;;;;5010193;28;20205;-74
2022/01/15 05:34:18;;;;;;;17.47;5.10;;;2.90;99.90;;;;;;5030239;23;20255;-70
2022/01/15 05:36:43;;;;;;;18.60;5.43;;;2.90;99.90;;;;;;5030772;28;20213;-71
2022/01/15 05:39:09;;;;;;;22.33;5.33;;;2.90;99.90;;;;;;5012953;28;20603;-71
2022/01/15 05:41:35;;;;;;;18.60;5.97;;;2.90;99.90;;;;;;5030570;28;20231;-71
2022/01/15 05:44:02;;;;;;;19.23;6.40;;;2.90;99.90;;;;;;5018940;28;20208;-70
2022/01/15 05:46:33;;;;;;;21.00;7.00;;;2.90;99.90;;;;;;5021031;28;20219;-71
2022/01/15 05:49:00;;;;;;;20.50;6.20;;;2.90;99.90;;;;;;5032199;28;20232;-72
2022/01/15 05:51:29;;;;;;;18.80;5.67;;;2.90;99.90;;;;;;5033145;28;20543;-71
2022/01/15 05:53:58;;;;;;;23.10;7.40;;;2.90;99.90;;;;;;5050443;28;20271;-71
2022/01/15 05:56:25;;;;;;;16.83;6.73;;;2.90;99.90;;;;;;5050447;28;20217;-71
2022/01/15 05:58:50;;;;;;;24.67;6.10;;;2.90;99.90;;;;;;5049970;28;20209;-71
2022/01/15 06:01:16;;;;;;;18.80;6.07;;;2.90;99.90;;;;;;5050544;28;20226;-71
2022/01/15 06:03:41;;;;;;;24.90;6.20;;;3.00;99.90;;;;;;5049901;28;20722;-71
2022/01/15 06:06:07;;;;;;;18.37;6.47;;;2.90;99.90;;;;;;5050876;28;20191;-71
2022/01/15 06:08:32;;;;;;;23.87;7.20;;;2.90;99.90;;;;;;5049844;28;20208;-72
2022/01/15 06:10:58;;;;;;;22.80;6.93;;;2.90;99.90;;;;;;5036329;28;20211;-71
2022/01/15 06:13:23;;;;;;;23.20;6.67;;;2.90;99.90;;;;;;5028464;28;20234;-71
2022/01/15 06:15:49;;;;;;;22.77;5.63;;;2.90;99.90;;;;;;5034819;28;20213;-71
2022/01/15 06:18:15;;;;;;;25.13;7.03;;;2.90;99.90;;;;;;5034657;28;20660;-71
2022/01/15 06:20:40;;;;;;;25.20;7.03;;;2.90;99.90;;;;;;5034335;28;20211;-71
2022/01/15 06:23:05;;;;;;;26.70;6.40;;;2.80;99.90;;;;;;5034146;28;20216;-71
2022/01/15 06:25:31;;;;;;;20.20;6.30;;;2.80;99.90;;;;;;5034298;28;20639;-71
2022/01/15 06:27:56;;;;;;;27.30;7.03;;;2.70;99.90;;;;;;5016174;28;20470;-71
2022/01/15 06:30:22;;;;;;;25.37;6.80;;;2.60;99.90;;;;;;5016795;28;20270;-71
2022/01/15 06:32:47;;;;;;;20.70;6.27;;;2.60;99.90;;;;;;5016059;28;20208;-71
2022/01/15 06:35:13;;;;;;;21.67;6.57;;;2.70;99.90;;;;;;5033990;28;20228;-71
2022/01/15 06:37:40;;;;;;;22.20;7.43;;;2.70;99.90;;;;;;5033833;28;20216;-71
2022/01/15 06:40:07;;;;;;;26.80;7.13;;;2.60;99.90;;;;;;5033839;28;20214;-71
2022/01/15 06:42:33;;;;;;;21.90;8.17;;;2.70;99.90;;;;;;5025702;28;20230;-71
2022/01/15 06:44:59;;;;;;;28.10;7.60;;;2.60;99.90;;;;;;5016107;28;20211;-71
2022/01/15 06:47:26;;;;;;;23.90;7.33;;;2.60;99.90;;;;;;5033638;28;20322;-71
2022/01/15 06:49:52;;;;;;;24.80;7.23;;;2.50;99.90;;;;;;5033507;28;20208;-71
2022/01/15 06:52:17;;;;;;;25.73;6.93;;;2.50;99.90;;;;;;5016046;28;20269;-71
2022/01/15 06:54:43;;;;;;;24.97;7.20;;;2.50;99.90;;;;;;5015562;28;20295;-70
2022/01/15 06:57:08;;;;;;;21.07;6.60;;;2.50;99.90;;;;;;5034339;28;20177;-71
2022/01/15 06:59:34;;;;;;;27.93;8.03;;;2.50;99.90;;;;;;5033032;28;20680;-72
2022/01/15 07:01:59;;;;;;;25.97;7.27;;;2.50;99.90;;;;;;5033784;28;20202;-71
2022/01/15 07:04:25;;;;;;;29.13;7.53;;;2.60;99.90;;;;;;5014558;28;20296;-71
2022/01/15 07:06:50;;;;;;;20.20;6.37;;;2.60;99.90;;;;;;5033720;28;20254;-72
2022/01/15 07:09:16;;;;;;;28.50;7.53;;;2.50;99.90;;;;;;5033398;28;20176;-71
2022/01/15 07:11:41;;;;;;;26.60;9.20;;;2.50;99.90;;;;;;5033295;28;20299;-71
2022/01/15 07:14:07;;;;;;;26.13;7.43;;;2.50;99.90;;;;;;5015254;28;20202;-73
2022/01/15 07:16:34;;;;;;;23.70;6.87;;;2.50;99.90;;;;;;5033005;28;20213;-71
2022/01/15 07:19:01;;;;;;;21.23;7.13;;;2.50;99.90;;;;;;5014924;28;20214;-72
2022/01/15 07:21:26;;;;;;;23.07;7.40;;;2.50;99.90;;;;;;5032914;28;20189;-72
2022/01/15 07:23:52;;;;;;;26.50;7.77;;;2.50;99.90;;;;;;5032859;28;20254;-72
2022/01/15 07:26:17;;;;;;;23.13;8.10;;;2.50;99.90;;;;;;5012133;28;20749;-71
2022/01/15 07:28:43;;;;;;;27.00;8.77;;;2.50;99.90;;;;;;5006286;28;20212;-71
2022/01/15 07:31:08;;;;;;;27.30;8.47;;;2.50;99.90;;;;;;5015311;28;20212;-71
2022/01/15 07:33:34;;;;;;;30.10;8.20;;;2.50;99.90;;;;;;5014491;28;20220;-73
2022/01/15 07:36:00;;;;;;;27.87;9.03;;;2.50;99.90;;;;;;5033554;28;20859;-71
2022/01/15 07:38:25;;;;;;;24.23;10.23;;;2.50;99.90;;;;;;5032237;28;20217;-71
2022/01/15 07:40:55;;;;;;;29.07;9.87;;;2.60;99.90;;;;;;5015309;28;20204;-73
2022/01/15 07:43:21;;;;;;;36.77;10.70;;;2.60;99.90;;;;;;5032330;28;20235;-73
2022/01/15 07:45:46;;;;;;;30.03;10.93;;;2.60;99.90;;;;;;5014838;28;20285;-71
2022/01/15 07:48:12;;;;;;;26.57;10.07;;;2.60;99.90;;;;;;5014928;28;20184;-72
2022/01/15 07:50:37;;;;;;;34.27;10.90;;;2.50;99.90;;;;;;5032672;28;20208;-72
2022/01/15 07:53:03;;;;;;;28.83;9.87;;;2.60;99.90;;;;;;5032371;28;20220;-72
2022/01/15 07:55:28;;;;;;;31.43;10.87;;;2.60;99.90;;;;;;5014671;28;20228;-72
2022/01/15 07:57:54;;;;;;;29.77;9.10;;;2.50;99.90;;;;;;5027701;28;20295;-72
2022/01/15 08:00:19;;;;;;;36.50;10.90;;;2.60;99.90;;;;;;5029441;28;20215;-72
2022/01/15 08:02:45;;;;;;;36.23;10.67;;;2.60;99.90;;;;;;5032212;28;20211;-72
2022/01/15 08:05:12;;;;;;;31.57;10.17;;;2.60;99.90;;;;;;5032345;28;20247;-71
2022/01/15 08:07:39;;;;;;;34.17;9.17;;;2.70;99.90;;;;;;5032133;28;20231;-71
2022/01/15 08:10:06;;;;;;;29.53;9.20;;;2.80;99.90;;;;;;5032244;28;20598;-70
2022/01/15 08:12:33;;;;;;;21.60;7.80;;;2.70;99.90;;;;;;5032303;28;20204;-71
2022/01/15 08:14:58;;;;;;;24.93;7.90;;;2.70;99.90;;;;;;5032092;28;20216;-71
2022/01/15 08:17:24;;;;;;;27.00;8.70;;;2.80;99.90;;;;;;5031906;28;20350;-72
2022/01/15 08:19:50;;;;;;;26.50;8.03;;;2.80;99.90;;;;;;5014112;28;20281;-73
2022/01/15 08:22:15;;;;;;;25.70;9.80;;;2.90;99.90;;;;;;5032491;28;20929;-72
2022/01/15 08:24:40;;;;;;;24.87;9.03;;;2.90;99.90;;;;;;5014158;28;20208;-71
2022/01/15 08:27:06;;;;;;;41.10;11.73;;;2.90;99.90;;;;;;5032564;28;20184;-72
2022/01/15 08:29:32;;;;;;;37.47;10.23;;;2.90;99.90;;;;;;5031363;28;20212;-71
2022/01/15 08:31:57;;;;;;;29.70;10.57;;;2.90;99.90;;;;;;5031779;28;20208;-72
2022/01/15 08:34:23;;;;;;;27.47;10.33;;;3.00;99.90;;;;;;5030339;28;20232;-72
2022/01/15 08:36:49;;;;;;;38.10;11.30;;;3.10;99.90;;;;;;5031879;28;20294;-73
2022/01/15 08:39:15;;;;;;;35.87;11.50;;;3.00;99.90;;;;;;5031782;28;20563;-73
2022/01/15 08:41:43;;;;;;;39.03;11.67;;;3.00;99.90;;;;;;5014006;28;20292;-71
2022/01/15 08:44:09;;;;;;;38.00;11.37;;;3.00;99.90;;;;;;5031520;28;20267;-71
2022/01/15 08:46:34;;;;;;;33.67;10.67;;;3.10;99.90;;;;;;5013370;28;20657;-71
2022/01/15 08:49:00;;;;;;;39.97;11.50;;;3.10;99.90;;;;;;5023018;28;20279;-72
2022/01/15 08:51:25;;;;;;;30.48;10.02;;;3.20;99.90;;;;;;5031674;28;20499;-72
2022/01/15 08:53:51;;;;;;;28.37;9.43;;;3.20;99.90;;;;;;5031530;28;20213;-69
2022/01/15 08:56:17;;;;;;;23.07;8.80;;;3.30;99.90;;;;;;5031757;28;20207;-72
2022/01/15 08:58:43;;;;;;;31.63;9.33;;;3.30;99.90;;;;;;5030888;28;20209;-72
2022/01/15 09:01:13;;;;;;;24.73;8.87;;;3.30;99.90;;;;;;5039080;28;20225;-73
2022/01/15 09:03:40;;;;;;;27.80;9.27;;;3.20;99.90;;;;;;5037456;28;20211;-71
2022/01/15 09:06:05;;;;;;;19.37;8.07;;;3.30;99.90;;;;;;5033197;28;20178;-72
2022/01/15 09:08:31;;;;;;;29.13;9.60;;;3.30;99.90;;;;;;5013588;28;20712;-72
2022/01/15 09:10:57;;;;;;;31.87;10.83;;;3.40;99.90;;;;;;5013624;28;20212;-71
2022/01/15 09:13:22;;;;;;;30.77;9.50;;;3.40;99.90;;;;;;5030928;28;20591;-72
2022/01/15 09:15:50;;;;;;;27.63;9.97;;;3.40;99.90;;;;;;5030756;28;20327;-72
2022/01/15 09:18:16;;;;;;;26.83;10.33;;;3.30;99.90;;;;;;5031459;28;20250;-74
2022/01/15 09:20:41;;;;;;;31.73;10.10;;;3.30;99.90;;;;;;5031024;28;20205;-71
2022/01/15 09:23:07;;;;;;;30.93;9.97;;;3.40;99.90;;;;;;5030868;28;20625;-71
2022/01/15 09:25:33;;;;;;;28.87;10.17;;;3.40;99.90;;;;;;5012935;28;20209;-71
2022/01/15 09:30:43;;;;;;;31.00;10.57;;;3.50;99.90;;;;;;5031262;28;20257;-71
2022/01/15 09:33:08;;;;;;;31.70;11.10;;;3.40;99.90;;;;;;5031475;28;20274;-71
2022/01/15 09:35:34;;;;;;;27.07;11.13;;;3.30;99.90;;;;;;5030615;28;20266;-71
2022/01/15 09:38:00;;;;;;;36.47;10.50;;;3.10;99.90;;;;;;5030583;28;20201;-71
2022/01/15 09:40:27;;;;;;;26.97;9.47;;;3.20;99.90;;;;;;5030626;28;20264;-71
2022/01/15 09:42:54;;;;;;;28.37;11.10;;;3.20;99.90;;;;;;5013030;28;20209;-71
2022/01/15 09:45:21;;;;;;;27.23;9.50;;;3.30;99.90;;;;;;5030352;28;20666;-71
2022/01/15 09:47:57;;;;;;;28.67;9.70;;;3.30;99.90;;;;;;5022457;28;20211;-71
2022/01/15 09:50:24;;;;;;;32.00;9.00;;;3.30;99.90;;;;;;5030540;28;20271;-71
2022/01/15 09:52:52;;;;;;;27.60;9.53;;;3.40;99.90;;;;;;5030312;28;20247;-72
2022/01/15 09:55:21;;;;;;;31.23;9.67;;;3.40;99.90;;;;;;5012860;28;20229;-71
2022/01/15 09:57:48;;;;;;;29.60;9.53;;;3.50;99.90;;;;;;5030167;28;20654;-72
2022/01/15 10:00:17;;;;;;;23.17;8.30;;;3.50;99.90;;;;;;5030902;28;20227;-71
2022/01/15 10:02:44;;;;;;;23.03;7.63;;;3.60;99.90;;;;;;5030141;28;20205;-71
2022/01/15 10:05:11;;;;;;;17.43;6.47;;;3.60;99.90;;;;;;5030480;28;20219;-71
2022/01/15 10:07:37;;;;;;;25.83;7.90;;;3.70;99.90;;;;;;5029913;28;20296;-71
2022/01/15 10:10:22;;;;;;;28.10;8.13;;;3.60;99.90;;;;;;5030157;28;20313;-71
2022/01/15 10:12:48;;;;;;;33.83;9.03;;;3.60;99.90;;;;;;5030053;28;20176;-73
2022/01/15 10:15:16;;;;;;;20.10;8.50;;;3.60;99.90;;;;;;5030363;28;20244;-71
2022/01/15 10:17:43;;;;;;;26.43;8.37;;;3.60;99.90;;;;;;5029938;28;20237;-72
2022/01/15 10:20:22;;;;;;;21.97;8.53;;;3.80;99.90;;;;;;5012228;28;20215;-71
2022/01/15 10:22:51;;;;;;;32.10;9.67;;;3.70;99.90;;;;;;5030270;28;20218;-71
2022/01/15 10:25:21;;;;;;;31.00;9.73;;;3.50;99.90;;;;;;5030134;28;20234;-71
2022/01/15 10:27:53;;;;;;;30.60;11.07;;;3.50;99.90;;;;;;5029867;28;20178;-72
2022/01/15 10:30:27;;;;;;;34.53;10.40;;;3.60;99.90;;;;;;5012829;28;20731;-71
2022/01/15 10:33:08;;;;;;;29.90;10.07;;;3.60;99.90;;;;;;5029641;28;20270;-71
2022/01/15 10:35:39;;;;;;;26.77;9.47;;;3.60;99.90;;;;;;5012138;28;20210;-71
2022/01/15 10:38:06;;;;;;;24.93;9.20;;;3.70;99.90;;;;;;5029853;28;20226;-71
2022/01/15 10:40:47;;;;;;;30.80;9.90;;;3.70;99.90;;;;;;5012109;28;20687;-71
2022/01/15 10:43:18;;;;;;;25.57;10.63;;;3.70;99.90;;;;;;5012181;28;20254;-71
2022/01/15 10:45:55;;;;;;;27.70;11.77;;;3.80;99.90;;;;;;5029156;28;20316;-72
2022/01/15 10:48:31;;;;;;;29.30;11.03;;;3.90;99.90;;;;;;5012209;28;20211;-75
2022/01/15 10:50:59;;;;;;;33.10;11.93;;;3.80;99.90;;;;;;5030007;28;20276;-71
2022/01/15 10:53:43;;;;;;;30.70;11.97;;;3.90;99.90;;;;;;5029516;28;20222;-71
2022/01/15 10:56:12;;;;;;;28.77;10.73;;;3.90;99.90;;;;;;5023753;28;20299;-71
2022/01/15 10:58:38;;;;;;;27.80;10.60;;;3.90;99.90;;;;;;5031796;28;20273;-71
2022/01/15 11:01:05;;;;;;;28.73;11.20;;;4.00;99.90;;;;;;5033606;28;20204;-71
2022/01/15 11:03:37;;;;;;;27.63;11.47;;;4.00;99.90;;;;;;5033286;28;20229;-72
2022/01/15 11:06:04;;;;;;;31.30;10.60;;;4.00;99.90;;;;;;5033950;28;20176;-71
2022/01/15 11:08:33;;;;;;;28.87;9.73;;;4.10;99.90;;;;;;5033504;28;20625;-71
2022/01/15 11:11:08;;;;;;;28.27;10.70;;;4.00;99.90;;;;;;5032048;28;20207;-71
2022/01/15 11:13:33;;;;;;;29.20;9.60;;;4.10;99.90;;;;;;5031938;28;20215;-71
2022/01/15 11:16:08;;;;;;;21.63;7.87;;;4.10;99.90;;;;;;5034340;28;20348;-71
2022/01/15 11:18:37;;;;;;;25.47;9.47;;;4.20;99.90;;;;;;5032781;28;20548;-70
2022/01/15 11:21:07;;;;;;;27.43;10.97;;;4.00;99.90;;;;;;5033981;28;20187;-70
2022/01/15 11:23:35;;;;;;;29.30;9.40;;;4.00;99.90;;;;;;5025075;28;20215;-71
2022/01/15 11:26:06;;;;;;;21.40;7.20;;;4.10;99.90;;;;;;5031980;28;20325;-74
2022/01/15 11:28:33;;;;;;;21.80;7.80;;;4.10;99.90;;;;;;5032670;28;20239;-71
2022/01/15 11:31:26;;;;;;;24.07;7.47;;;4.10;99.90;;;;;;5031783;28;20218;-73
2022/01/15 11:33:55;;;;;;;25.17;6.67;;;4.00;99.90;;;;;;5041446;23;20224;-73
2022/01/15 11:36:41;;;;;;;16.07;6.37;;;4.10;99.90;;;;;;4994307;28;20192;-75
2022/01/15 11:39:12;;;;;;;25.23;7.23;;;4.00;99.90;;;;;;4974118;28;20221;-75
2022/01/15 11:41:53;;;;;;;26.47;7.23;;;4.10;99.90;;;;;;4974587;28;20256;-74
2022/01/15 11:44:37;;;;;;;22.13;6.80;;;4.10;99.90;;;;;;4973985;28;20221;-73
2022/01/15 11:47:12;;;;;;;34.40;11.17;;;4.10;99.90;;;;;;4986730;28;20208;-74
2022/01/15 11:49:44;;;;;;;28.83;7.80;;;4.10;99.90;;;;;;4991747;28;20213;-74
2022/01/15 11:52:11;;;;;;;19.03;7.07;;;4.00;99.90;;;;;;4990386;28;20239;-74
2022/01/15 11:54:38;;;;;;;25.73;7.37;;;3.90;99.90;;;;;;4970466;28;20956;-77
2022/01/15 11:57:18;;;;;;;23.90;6.10;;;3.90;99.90;;;;;;4968367;28;20625;-75
2022/01/15 11:59:51;;;;;;;17.57;6.87;;;3.80;99.90;;;;;;5003084;28;20764;-77
2022/01/15 12:02:37;;;;;;;22.17;6.60;;;3.80;99.90;;;;;;5010020;28;20292;-75
2022/01/15 12:05:18;;;;;;;21.23;6.67;;;3.70;99.90;;;;;;5000202;28;20991;-75
2022/01/15 12:08:11;;;;;;;16.77;7.07;;;3.70;99.90;;;;;;4992414;28;20247;-77
2022/01/15 12:10:49;;;;;;;25.37;7.83;;;3.70;99.90;;;;;;4990472;28;20223;-75
2022/01/15 12:13:19;;;;;;;38.90;8.57;;;3.80;99.90;;;;;;4986454;28;20261;-75
2022/01/15 12:15:47;;;;;;;25.80;7.23;;;3.90;99.90;;;;;;4973900;28;20200;-77
2022/01/15 12:18:15;;;;;;;27.77;8.07;;;3.90;99.90;;;;;;4992619;28;20186;-72
2022/01/15 12:20:41;;;;;;;19.53;7.77;;;3.90;99.90;;;;;;4993560;28;20223;-73
2022/01/15 12:23:19;;;;;;;18.60;7.43;;;3.90;99.90;;;;;;4986177;28;20229;-74
2022/01/15 12:29:18;;;;;;;19.67;7.17;;;4.00;99.90;;;;;;4971867;28;20223;-77
2022/01/15 12:31:50;;;;;;;25.33;7.30;;;3.90;99.90;;;;;;4977579;28;20290;-75
2022/01/15 12:34:27;;;;;;;21.67;8.03;;;3.90;99.90;;;;;;4985585;28;20793;-75
2022/01/15 12:36:53;;;;;;;28.80;7.90;;;3.90;99.90;;;;;;4995426;28;20209;-75
2022/01/15 12:39:35;;;;;;;25.23;7.97;;;3.90;99.90;;;;;;4998183;28;20219;-76
2022/01/15 12:42:01;;;;;;;25.23;8.27;;;4.00;99.90;;;;;;5017797;28;20203;-79
2022/01/15 12:44:27;;;;;;;27.03;8.53;;;4.00;99.90;;;;;;5015662;28;20219;-77
2022/01/15 12:46:59;;;;;;;26.57;9.33;;;4.00;99.90;;;;;;5020182;28;20295;-77
2022/01/15 12:49:48;;;;;;;27.87;9.80;;;4.10;99.90;;;;;;5015996;28;20207;-75
2022/01/15 12:52:20;;;;;;;25.33;9.53;;;4.20;99.90;;;;;;5016925;28;20363;-76
2022/01/15 12:54:50;;;;;;;30.27;10.63;;;4.30;99.90;;;;;;5011806;28;20215;-73
2022/01/15 12:57:40;;;;;;;24.27;10.10;;;4.30;99.90;;;;;;5014310;28;20179;-76
2022/01/15 13:00:18;;;;;;;22.10;8.60;;;4.30;99.90;;;;;;5010904;28;20693;-75
2022/01/15 13:02:45;;;;;;;23.63;7.53;;;4.30;99.90;;;;;;5012356;28;20703;-72
2022/01/15 13:05:12;;;;;;;24.90;8.00;;;4.40;99.90;;;;;;5010361;28;20216;-74
2022/01/15 13:07:57;;;;;;;25.87;8.77;;;4.40;99.90;;;;;;5011076;28;20235;-73
2022/01/15 13:10:30;;;;;;;27.13;9.60;;;4.40;99.90;;;;;;5011354;28;20219;-73
2022/01/15 13:12:56;;;;;;;28.75;8.60;;;4.50;99.90;;;;;;5015827;28;20284;-73
2022/01/15 13:15:24;;;;;;;24.50;8.60;;;4.40;99.90;;;;;;5017299;28;20313;-71
2022/01/15 13:17:50;;;;;;;23.67;8.07;;;4.40;99.90;;;;;;5013469;28;20705;-72